Hauptseite
METAR-TAF:

METAR-TAF

Flughäfen :

Flughafen Teheran-Mehrabad

Teheran, Iran

Breite: 35-41N, Länge: 051-21E, Höhe: 1204 m

Beobachtung

Neuester Wetterbericht von vor 23 Minuten, um 04:00 UTC
Windstille
Temperatur 0°C
Luftfeuchtigkeit 51%
Luftdruck 1024 hPa
Sichtweite: 7000 m

METAR: OIII 210400Z 00000KT 7000 NSC M00/M09 Q1023 A3023 NOSIG

Zeit: 07:53 (04:23 UTC)

Prognose

Neuester Wetterbericht von vor 5 Stunden und 13 Minuten, um 23:10 UTC
Gültige Prognose vom 21 um 00 UTC bis 22 um 06 UTC
Wind 6 kt aus West
Sichtweite: 7000 m
Übergehend zu
vom 21 um 03 UTC bis 21 um 05 UTC
Sichtweite: 4000 m
trockener Dunst
Übergehend zu
vom 21 um 08 UTC bis 21 um 10 UTC
Sichtweite: 7000 m
Zeitweise
vom 22 um 01 UTC bis 22 um 05 UTC
Sichtweite: 4000 m
trockener Dunst

TAF: OIII 202310Z 2100/2206 28006KT 7000 NSC BECMG 2103/2105 4000 HZ BECMG 2108/2110 7000 TEMPO 2201/2205 4000 HZ

Wetterbeobachtungen und Prognosen von mehr als 4000 Flughäfen (METAR und TAF Bericht).

Die verfügbaren Stationen werden durch gelbe und rote Markierungen auf der Karte dargestellt.

Führen Sie die Maus auf sie, um den Namen der Station zu sehen.

Darauf klicken, um die Beobachtung von Wetterbeobachtungen und Prognosen zu sehen.

Um die Karte zu ändern : klicken Sie auf den grünen Tasten mit einem schwarzen Kreuz Zum Vergrößern, auf den grünen Button mit einem Gedankenstrich zu verkleinern, oder auf die grünen Pfeile für benachbarte Karten.


METAR-TAF: